Déline Airport
CYWJ : now visible

Airfield :











YOU CAN JOIN US ON...

 
LOGIN :

Register | Disclaimer

   EN    FR    IT 

 









Legend :    VFR   Marginal VFR   IFR   Intensive IFR   Very Intensive IFR
Visi :
Ceiling :
>= 8 km
>= 3000ft
5 to 8 km
1000 to 3000 ft
1500m to 5 km
500 to 1000 ft
800 to 1500m
200 to 500 ft
< 800m
< 200 ft
Symbols :   Thunderstorms  Fog  Heavy snow  Heavy precipitations  Wind > 20 kt






- Airport Elevation : 703 ft
- IATA code : YWJ


CYWJ - Déline

CURRENT METAR :
  • 241600Z VRB02KT 30SM FEW011 SCT015 M05/M06 A3036 RMK SC2SC2 SLP302

EXPIRED METARs :
  • 241500Z 23003KT 20SM BKN014 M04/M05 A3039 RMK SC7 SLP309
  • 241400Z 23004KT 180V250 20SM BKN015 M04/M05 A3039 RMK SC7 SLP311

TAF TAF CYWJ
Valid from the 24 at 14:00 until the 24 at 23:00 UTC


241410Z 2414/2423 23005KT P6SM SCT015
TEMPO 2414/2420 BKN015
BECMG 2418/2420 14008KT RMK NXT FCST BY 241800Z
CZEG FIR / North America



MET'MAP, your aeronautical weather chart ! - Copyright ORBIFLY December 2007 - Disclaimer

ORBIFLY MET'MAP TEAM :

Programming & Development : Alexandra Zaïnal
Concept & original design : Baudouin d'Aumeries
Assistance for programming : Marc-Olivier Méhu
Technical & hardware support : Manuel Goepfert

Contact : metmap@orbifly.com




SOURCES & CREDITS :

   NOAA       Earth
Advisory